createdAt,value
2019-02-21T00:00:23.542Z,102266.01
2019-02-21T00:02:43.928Z,102275.04
2019-02-21T00:05:13.168Z,102269.80
2019-02-21T00:07:42.415Z,102276.14
2019-02-21T00:10:11.839Z,102268.89
2019-02-21T00:12:41.287Z,102271.19
2019-02-21T00:15:10.726Z,102267.65
2019-02-21T00:17:40.181Z,102273.80
2019-02-21T00:20:09.630Z,102267.65
2019-02-21T00:22:38.781Z,102275.84
2019-02-21T00:25:08.033Z,102278.47
2019-02-21T00:27:37.284Z,102280.70
2019-02-21T00:30:07.485Z,102277.83
2019-02-21T00:32:36.781Z,102279.87
2019-02-21T00:35:06.243Z,102284.75
2019-02-21T00:37:35.711Z,102287.39
2019-02-21T00:40:07.004Z,102295.38
2019-02-21T00:42:36.233Z,102295.03
2019-02-21T00:45:05.643Z,102298.30
2019-02-21T00:47:34.892Z,102305.05
2019-02-21T00:50:04.693Z,102310.77
2019-02-21T00:52:34.125Z,102305.87
2019-02-21T00:55:03.352Z,102305.53
2019-02-21T00:57:32.579Z,102305.18
2019-02-21T01:00:01.827Z,102301.13
2019-02-21T01:02:31.075Z,102303.79
2019-02-21T01:05:00.471Z,102305.53
2019-02-21T01:07:29.695Z,102306.83
2019-02-21T01:09:58.981Z,102302.45
2019-02-21T01:12:28.236Z,102298.53
2019-02-21T01:14:57.497Z,102307.38
2019-02-21T01:17:26.883Z,102304.55
2019-02-21T01:19:56.175Z,102307.72
2019-02-21T01:22:25.405Z,102315.70
2019-02-21T01:24:54.667Z,102327.22
2019-02-21T01:27:23.928Z,102317.92
2019-02-21T01:29:53.169Z,102320.66
2019-02-21T01:32:22.379Z,102323.23
2019-02-21T01:34:51.709Z,102327.73
2019-02-21T01:37:20.943Z,102327.70
2019-02-21T01:39:50.172Z,102321.48
2019-02-21T01:42:19.488Z,102320.22
2019-02-21T01:44:48.793Z,102317.92
2019-02-21T01:47:18.094Z,102318.84
2019-02-21T01:49:47.327Z,102312.25
2019-02-21T01:52:16.563Z,102317.87
2019-02-21T01:54:45.851Z,102311.80
2019-02-21T01:57:15.084Z,102313.06
2019-02-21T01:59:44.345Z,102317.50
2019-02-21T02:02:13.699Z,102324.99
2019-02-21T02:04:42.991Z,102326.91
2019-02-21T02:07:12.291Z,102324.66
2019-02-21T02:09:41.821Z,102318.06
2019-02-21T02:12:11.073Z,102321.98
2019-02-21T02:14:40.323Z,102319.66
2019-02-21T02:17:09.583Z,102321.48
2019-02-21T02:19:38.810Z,102323.23
2019-02-21T02:22:08.131Z,102318.75
2019-02-21T02:24:37.403Z,102317.06
2019-02-21T02:27:06.680Z,102321.14
2019-02-21T02:29:35.942Z,102321.64
2019-02-21T02:32:05.205Z,102311.37
2019-02-21T02:34:34.479Z,102319.48
2019-02-21T02:37:03.720Z,102305.64
2019-02-21T02:39:32.957Z,102309.65
2019-02-21T02:42:02.296Z,102308.20
2019-02-21T02:44:31.539Z,102313.50
2019-02-21T02:47:00.769Z,102309.54
2019-02-21T02:49:30.104Z,102304.68
2019-02-21T02:51:59.403Z,102301.05
2019-02-21T02:54:50.888Z,102300.97
2019-02-21T02:57:20.128Z,102297.40
2019-02-21T02:59:49.400Z,102299.86
2019-02-21T03:02:18.652Z,102290.53
2019-02-21T03:04:48.207Z,102289.16
2019-02-21T03:07:17.461Z,102292.19
2019-02-21T03:09:46.741Z,102299.53
2019-02-21T03:12:15.909Z,102295.13
2019-02-21T03:14:45.212Z,102292.08
2019-02-21T03:17:14.540Z,102303.20
2019-02-21T03:19:43.821Z,102296.11
2019-02-21T03:22:13.133Z,102290.69
2019-02-21T03:24:42.374Z,102294.66
2019-02-21T03:27:11.660Z,102299.14
2019-02-21T03:29:40.903Z,102300.01
2019-02-21T03:32:10.120Z,102290.34
2019-02-21T03:34:39.291Z,102290.67
2019-02-21T03:37:08.550Z,102299.24
2019-02-21T03:39:37.798Z,102286.46
2019-02-21T03:42:07.059Z,102274.97
2019-02-21T03:44:36.309Z,102271.39
2019-02-21T03:47:05.567Z,102271.43
2019-02-21T03:49:34.781Z,102269.25
2019-02-21T03:52:04.092Z,102263.57
2019-02-21T03:54:33.322Z,102264.08
2019-02-21T03:57:02.648Z,102263.53
2019-02-21T03:59:31.976Z,102272.94
2019-02-21T04:02:05.131Z,102270.61
2019-02-21T04:04:32.292Z,102271.47
2019-02-21T04:07:01.529Z,102271.33
2019-02-21T04:09:30.846Z,102278.81
2019-02-21T04:12:00.111Z,102281.41
2019-02-21T04:14:29.449Z,102271.39
2019-02-21T04:16:58.755Z,102279.06
2019-02-21T04:19:28.007Z,102287.53
2019-02-21T04:21:57.150Z,102284.05
2019-02-21T04:24:26.464Z,102283.39
2019-02-21T04:26:55.717Z,102285.64
2019-02-21T04:29:24.959Z,102287.09
2019-02-21T04:31:54.204Z,102291.39
2019-02-21T04:34:23.466Z,102296.20
2019-02-21T04:36:55.700Z,102289.67
2019-02-21T04:39:24.960Z,102293.80
2019-02-21T04:41:54.251Z,102289.29
2019-02-21T04:44:23.468Z,102284.58
2019-02-21T04:46:52.708Z,102284.48
2019-02-21T04:49:21.955Z,102288.84
2019-02-21T04:51:51.160Z,102279.44
2019-02-21T04:54:20.452Z,102285.98
2019-02-21T04:56:49.637Z,102288.69
2019-02-21T04:59:18.892Z,102292.72
2019-02-21T05:01:48.129Z,102294.94
2019-02-21T05:04:17.347Z,102297.16
2019-02-21T05:06:46.569Z,102293.05
2019-02-21T05:09:17.087Z,102291.23
2019-02-21T05:11:46.354Z,102297.55
2019-02-21T05:14:15.595Z,102298.47
2019-02-21T05:16:44.866Z,102300.16
2019-02-21T05:19:14.084Z,102305.03
2019-02-21T05:21:43.362Z,102306.84
2019-02-21T05:24:12.610Z,102272.09
2019-02-21T05:26:43.499Z,102301.51
2019-02-21T05:29:13.991Z,102298.37
2019-02-21T05:31:59.772Z,102285.03
2019-02-21T05:34:36.655Z,102290.75
2019-02-21T05:37:10.643Z,102298.47
2019-02-21T05:39:44.387Z,102301.02
2019-02-21T05:42:21.398Z,102307.31
2019-02-21T05:45:07.314Z,102306.14
2019-02-21T05:47:38.256Z,102296.81
2019-02-21T05:50:09.579Z,102286.66
2019-02-21T05:52:56.689Z,102292.34
2019-02-21T05:55:30.166Z,102292.37
2019-02-21T05:58:17.178Z,102283.31
2019-02-21T06:01:00.177Z,102285.52
2019-02-21T06:03:35.866Z,102287.13
2019-02-21T06:06:18.559Z,102285.34
2019-02-21T06:09:07.814Z,102288.56
2019-02-21T06:11:38.701Z,102287.21
2019-02-21T06:14:27.833Z,102293.38
2019-02-21T06:17:07.709Z,102293.00
2019-02-21T06:19:50.361Z,102285.89
2019-02-21T06:22:27.348Z,102280.64
2019-02-21T06:25:00.943Z,102285.20
2019-02-21T06:27:43.756Z,102286.53
2019-02-21T06:30:23.402Z,102274.13
2019-02-21T06:32:52.648Z,102258.98
2019-02-21T06:35:21.899Z,102273.63
2019-02-21T06:37:51.180Z,102266.88
2019-02-21T06:40:20.415Z,102263.86
2019-02-21T06:42:49.670Z,102267.02
2019-02-21T06:45:18.920Z,102261.09
2019-02-21T06:47:48.241Z,102256.80
2019-02-21T06:50:26.342Z,102264.66
2019-02-21T06:52:48.444Z,102266.03
2019-02-21T06:55:35.599Z,102255.84
2019-02-21T06:58:04.912Z,102259.70
2019-02-21T07:00:34.098Z,102267.20
2019-02-21T07:03:03.349Z,102288.77
2019-02-21T07:05:32.587Z,102305.97
2019-02-21T07:08:01.947Z,102317.11
2019-02-21T07:10:31.173Z,102321.97
2019-02-21T07:13:00.520Z,102330.50
2019-02-21T07:15:29.743Z,102342.90
2019-02-21T07:17:58.993Z,102348.78
2019-02-21T07:20:28.338Z,102347.82
2019-02-21T07:22:57.573Z,102349.50
2019-02-21T07:25:32.487Z,102340.91
2019-02-21T07:28:11.405Z,102344.49
2019-02-21T07:30:33.511Z,102355.42
2019-02-21T07:33:02.758Z,102348.87
2019-02-21T07:35:32.066Z,102364.42
2019-02-21T07:38:01.483Z,102364.27
2019-02-21T07:40:30.747Z,102362.09
2019-02-21T07:43:00.064Z,102369.44
2019-02-21T07:45:29.316Z,102372.58
2019-02-21T07:47:58.558Z,102375.30
2019-02-21T07:50:27.817Z,102379.49
2019-02-21T07:53:02.342Z,102384.55
2019-02-21T07:55:28.032Z,102385.47
2019-02-21T07:57:57.289Z,102387.25
2019-02-21T08:00:26.530Z,102382.02
2019-02-21T08:02:55.779Z,102386.33
2019-02-21T08:05:25.001Z,102389.08
2019-02-21T08:07:54.254Z,102384.64
2019-02-21T08:10:33.139Z,102391.72
2019-02-21T08:12:54.400Z,102390.42
2019-02-21T08:15:23.841Z,102394.42
2019-02-21T08:17:53.070Z,102391.17
2019-02-21T08:20:33.264Z,102402.73
2019-02-21T08:22:53.397Z,102410.51
2019-02-21T08:25:22.636Z,102411.75
2019-02-21T08:27:51.933Z,102418.50
2019-02-21T08:30:21.242Z,102421.20
2019-02-21T08:33:03.958Z,102422.99
2019-02-21T08:35:33.302Z,102430.16
2019-02-21T08:38:02.541Z,102426.65
2019-02-21T08:40:31.776Z,102438.36
2019-02-21T08:43:03.874Z,102435.94
2019-02-21T08:45:32.028Z,102436.92
2019-02-21T08:48:01.239Z,102436.92
2019-02-21T08:50:30.505Z,102433.50
2019-02-21T08:53:01.006Z,102437.19
2019-02-21T08:55:30.557Z,102441.38
2019-02-21T08:57:59.817Z,102450.32
2019-02-21T09:00:31.456Z,102454.72
2019-02-21T09:03:00.092Z,102450.30
2019-02-21T09:05:29.451Z,102459.91
2019-02-21T09:07:58.675Z,102460.19
2019-02-21T09:10:28.150Z,102463.48
2019-02-21T09:12:57.419Z,102463.89
2019-02-21T09:15:26.720Z,102461.16
2019-02-21T09:17:55.983Z,102471.88
2019-02-21T09:20:25.235Z,102472.44
2019-02-21T09:22:54.483Z,102470.17
2019-02-21T09:25:23.724Z,102471.73
2019-02-21T09:27:52.967Z,102465.52
2019-02-21T09:30:22.248Z,102473.17
2019-02-21T09:32:51.608Z,102466.19
2019-02-21T09:35:20.963Z,102475.11
2019-02-21T09:37:50.279Z,102476.38
2019-02-21T09:40:19.502Z,102476.33
2019-02-21T09:42:48.745Z,102481.00
2019-02-21T09:45:19.572Z,102483.22
2019-02-21T09:47:48.919Z,102486.06
2019-02-21T09:50:18.418Z,102483.08
2019-02-21T09:52:47.642Z,102487.98
2019-02-21T09:55:18.179Z,102501.11
2019-02-21T09:57:47.467Z,102501.11
2019-02-21T10:00:19.233Z,102504.39
2019-02-21T10:02:48.629Z,102504.34
2019-02-21T10:05:18.331Z,102508.60
2019-02-21T10:07:47.583Z,102506.19
2019-02-21T10:10:20.567Z,102510.59
2019-02-21T10:12:49.795Z,102510.99
2019-02-21T10:15:19.161Z,102520.61
2019-02-21T10:17:50.832Z,102520.61
2019-02-21T10:20:22.497Z,102524.19
2019-02-21T10:22:51.945Z,102516.58
2019-02-21T10:25:26.736Z,102519.91
2019-02-21T10:27:58.714Z,102519.91
2019-02-21T10:30:26.999Z,102510.48
2019-02-21T10:32:56.268Z,102513.80
2019-02-21T10:35:25.515Z,102509.77
2019-02-21T10:37:54.776Z,102502.58
2019-02-21T10:40:24.040Z,102495.05
2019-02-21T10:42:53.291Z,102498.48
2019-02-21T10:45:23.237Z,102501.47
2019-02-21T10:47:52.523Z,102501.81
2019-02-21T10:50:22.104Z,102500.81
2019-02-21T10:52:51.359Z,102511.70
2019-02-21T10:55:20.617Z,102511.70
2019-02-21T10:57:49.866Z,102503.38
2019-02-21T11:00:27.646Z,102501.99
2019-02-21T11:02:56.992Z,102504.41
2019-02-21T11:05:26.328Z,102503.48
2019-02-21T11:07:55.604Z,102503.48
2019-02-21T11:10:26.835Z,102505.25
2019-02-21T11:12:56.163Z,102491.72
2019-02-21T11:15:26.081Z,102502.54
2019-02-21T11:17:55.395Z,102496.77
2019-02-21T11:20:24.799Z,102499.89
2019-02-21T11:22:54.089Z,102499.89
2019-02-21T11:25:23.336Z,102495.05
2019-02-21T11:27:52.589Z,102475.52
2019-02-21T11:30:22.178Z,102468.23
2019-02-21T11:32:51.484Z,102468.23
2019-02-21T11:35:20.755Z,102473.89
2019-02-21T11:37:50.009Z,102476.94
2019-02-21T11:40:19.449Z,102476.94
2019-02-21T11:42:48.724Z,102477.52
2019-02-21T11:45:19.423Z,102477.52
2019-02-21T11:47:48.762Z,102480.00
2019-02-21T11:50:19.843Z,102479.61
2019-02-21T11:52:49.247Z,102480.29
2019-02-21T11:55:23.453Z,102478.28
2019-02-21T11:57:52.749Z,102478.28
2019-02-21T12:00:40.143Z,102487.79
2019-02-21T12:03:27.173Z,102483.73
2019-02-21T12:05:56.433Z,102474.80
2019-02-21T12:08:25.695Z,102474.80
2019-02-21T12:10:54.975Z,102473.15
2019-02-21T12:13:24.196Z,102481.01
2019-02-21T12:15:53.507Z,102474.53
2019-02-21T12:18:22.771Z,102478.40
2019-02-21T12:20:52.129Z,102481.59
2019-02-21T12:23:21.504Z,102482.66
2019-02-21T12:25:50.709Z,102477.89
2019-02-21T12:28:19.948Z,102475.20
2019-02-21T12:30:49.207Z,102477.37
2019-02-21T12:33:18.486Z,102487.41
2019-02-21T12:35:47.758Z,102498.66
2019-02-21T12:38:17.086Z,102491.37
2019-02-21T12:40:46.362Z,102491.78
2019-02-21T12:43:15.614Z,102492.97
2019-02-21T12:45:45.148Z,102497.70
2019-02-21T12:48:14.475Z,102496.87
2019-02-21T12:50:44.642Z,102503.81
2019-02-21T12:53:13.929Z,102502.87
2019-02-21T12:55:43.196Z,102500.45
2019-02-21T12:58:12.467Z,102502.45
2019-02-21T13:00:41.786Z,102509.03
2019-02-21T13:03:11.042Z,102506.50
2019-02-21T13:05:41.453Z,102502.84
2019-02-21T13:08:10.787Z,102511.81
2019-02-21T13:10:40.048Z,102516.28
2019-02-21T13:13:09.271Z,102511.73
2019-02-21T13:15:38.554Z,102518.53
2019-02-21T13:18:15.429Z,102507.31
2019-02-21T13:20:38.775Z,102515.06
2019-02-21T13:23:08.064Z,102513.76
2019-02-21T13:25:37.341Z,102520.86
2019-02-21T13:28:06.621Z,102523.62
2019-02-21T13:30:35.940Z,102524.92
2019-02-21T13:33:05.198Z,102524.92
2019-02-21T13:35:34.467Z,102527.64
2019-02-21T13:38:03.946Z,102516.19
2019-02-21T13:40:33.197Z,102514.92
2019-02-21T13:43:02.524Z,102518.44
2019-02-21T13:45:31.764Z,102520.10
2019-02-21T13:48:01.036Z,102518.36
2019-02-21T13:50:30.469Z,102516.93
2019-02-21T13:52:59.717Z,102518.23
2019-02-21T13:55:29.021Z,102524.19
2019-02-21T13:57:58.277Z,102517.30
2019-02-21T14:00:27.629Z,102520.12
2019-02-21T14:02:56.864Z,102526.16
2019-02-21T14:05:26.137Z,102526.16
2019-02-21T14:07:55.399Z,102522.78
2019-02-21T14:10:24.693Z,102524.39
2019-02-21T14:12:53.974Z,102534.16
2019-02-21T14:15:29.143Z,102534.16
2019-02-21T14:17:58.475Z,102534.95
2019-02-21T14:20:27.767Z,102534.21
2019-02-21T14:22:57.069Z,102525.37
2019-02-21T14:25:28.186Z,102525.86
2019-02-21T14:27:57.255Z,102526.11
2019-02-21T14:30:26.538Z,102528.55
2019-02-21T14:32:55.795Z,102538.95
2019-02-21T14:35:25.058Z,102538.95
2019-02-21T14:37:54.254Z,102534.69
2019-02-21T14:40:23.450Z,102540.89
2019-02-21T14:42:52.705Z,102540.89
2019-02-21T14:45:24.079Z,102548.20
2019-02-21T14:47:53.453Z,102553.42
2019-02-21T14:50:22.682Z,102565.83
2019-02-21T14:52:51.870Z,102565.83
2019-02-21T14:55:21.091Z,102559.88
2019-02-21T14:57:50.313Z,102563.20
2019-02-21T15:00:22.830Z,102565.77
2019-02-21T15:02:52.014Z,102565.77
2019-02-21T15:05:22.205Z,102571.33
2019-02-21T15:07:51.399Z,102572.67
2019-02-21T15:10:20.607Z,102572.67
2019-02-21T15:12:49.930Z,102576.59
2019-02-21T15:15:23.634Z,102578.29
2019-02-21T15:17:52.864Z,102578.29
2019-02-21T15:20:22.126Z,102589.87
2019-02-21T15:22:53.915Z,102589.87
2019-02-21T15:25:22.301Z,102590.03
2019-02-21T15:27:51.517Z,102584.31
2019-02-21T15:30:25.606Z,102584.31
2019-02-21T15:32:54.810Z,102589.21
2019-02-21T15:35:24.939Z,102589.94
2019-02-21T15:37:54.153Z,102603.63
2019-02-21T15:40:23.349Z,102601.53
2019-02-21T15:42:52.979Z,102601.53
2019-02-21T15:45:27.262Z,102611.16
2019-02-21T15:47:56.599Z,102599.31
2019-02-21T15:50:25.876Z,102611.59
2019-02-21T15:52:56.449Z,102619.65
2019-02-21T15:55:25.638Z,102619.65
2019-02-21T15:58:03.203Z,102619.11
2019-02-21T16:00:26.648Z,102615.36
2019-02-21T16:02:55.832Z,102615.36
2019-02-21T16:05:25.015Z,102627.56
2019-02-21T16:07:54.227Z,102627.56
2019-02-21T16:10:27.680Z,102627.08
2019-02-21T16:12:57.308Z,102627.08
2019-02-21T16:15:26.837Z,102625.94
2019-02-21T16:17:56.092Z,102625.94
2019-02-21T16:20:25.293Z,102633.30
2019-02-21T16:22:54.635Z,102632.48
2019-02-21T16:25:31.200Z,102629.53
2019-02-21T16:28:00.561Z,102636.47
2019-02-21T16:30:30.047Z,102636.47
2019-02-21T16:32:59.282Z,102633.89
2019-02-21T16:35:28.483Z,102633.89
2019-02-21T16:37:57.695Z,102631.62
2019-02-21T16:40:26.907Z,102634.26
2019-02-21T16:42:56.193Z,102634.26
2019-02-21T16:45:25.405Z,102645.77
2019-02-21T16:47:54.667Z,102654.86
2019-02-21T16:50:29.852Z,102657.15
2019-02-21T16:52:54.915Z,102661.91
2019-02-21T16:55:24.959Z,102668.97
2019-02-21T16:57:54.183Z,102668.97
2019-02-21T17:00:24.336Z,102668.97
2019-02-21T17:02:53.595Z,102670.77
2019-02-21T17:05:22.898Z,102673.98
2019-02-21T17:07:52.082Z,102686.84
2019-02-21T17:10:21.301Z,102686.84
2019-02-21T17:12:50.507Z,102683.58
2019-02-21T17:15:19.805Z,102690.22
2019-02-21T17:17:49.021Z,102699.16
2019-02-21T17:20:20.614Z,102699.16
2019-02-21T17:22:49.946Z,102704.75
2019-02-21T17:25:19.140Z,102702.25
2019-02-21T17:27:49.998Z,102716.78
2019-02-21T17:30:19.725Z,102714.88
2019-02-21T17:32:48.996Z,102714.88
2019-02-21T17:35:18.239Z,102716.46
2019-02-21T17:37:47.451Z,102714.17
2019-02-21T17:40:24.065Z,102726.37
2019-02-21T17:42:53.364Z,102732.76
2019-02-21T17:45:22.757Z,102733.70
2019-02-21T17:47:51.987Z,102733.26
2019-02-21T17:50:21.257Z,102745.25
2019-02-21T17:52:50.452Z,102750.17
2019-02-21T17:55:19.744Z,102755.55
2019-02-21T17:57:48.936Z,102757.52
2019-02-21T18:00:26.620Z,102757.52
2019-02-21T18:02:55.826Z,102758.61
2019-02-21T18:05:25.055Z,102776.34
2019-02-21T18:07:54.274Z,102774.64
2019-02-21T18:10:23.481Z,102772.48
2019-02-21T18:12:52.779Z,102770.27
2019-02-21T18:15:21.974Z,102770.27
2019-02-21T18:17:51.274Z,102765.63
2019-02-21T18:20:20.568Z,102770.06
2019-02-21T18:22:49.788Z,102770.06
2019-02-21T18:25:36.889Z,102782.13
2019-02-21T18:28:06.103Z,102775.59
2019-02-21T18:30:35.438Z,102791.82
2019-02-21T18:33:04.662Z,102793.17
2019-02-21T18:35:33.853Z,102792.58
2019-02-21T18:38:03.057Z,102791.69
2019-02-21T18:40:32.258Z,102784.22
2019-02-21T18:43:01.448Z,102784.22
2019-02-21T18:45:30.721Z,102778.44
2019-02-21T18:47:59.950Z,102783.80
2019-02-21T18:50:37.757Z,102783.80
2019-02-21T18:53:00.195Z,102795.22
2019-02-21T18:55:29.392Z,102795.22
2019-02-21T18:57:58.592Z,102796.32
2019-02-21T19:00:27.958Z,102807.43
2019-02-21T19:02:57.158Z,102811.81
2019-02-21T19:05:35.456Z,102785.48
2019-02-21T19:08:04.145Z,102814.66
2019-02-21T19:10:28.579Z,102811.05
2019-02-21T19:12:57.851Z,102811.05
2019-02-21T19:15:27.722Z,102807.87
2019-02-21T19:17:56.963Z,102807.87
2019-02-21T19:20:26.349Z,102806.37
2019-02-21T19:22:55.710Z,102806.37
2019-02-21T19:25:24.907Z,102818.99
2019-02-21T19:27:54.130Z,102818.99
2019-02-21T19:30:46.401Z,102821.29
2019-02-21T19:33:15.792Z,102823.09
2019-02-21T19:35:45.148Z,102830.97
2019-02-21T19:38:14.472Z,102830.97
2019-02-21T19:40:43.667Z,102831.86
2019-02-21T19:43:12.871Z,102831.86
2019-02-21T19:45:42.271Z,102829.23
2019-02-21T19:48:11.484Z,102830.80
2019-02-21T19:50:40.674Z,102828.38
2019-02-21T19:53:09.909Z,102814.48
2019-02-21T19:55:39.263Z,102816.80
2019-02-21T19:58:08.466Z,102826.87
2019-02-21T20:00:37.883Z,102826.30
2019-02-21T20:03:07.311Z,102826.30
2019-02-21T20:05:36.713Z,102828.67
2019-02-21T20:08:08.963Z,102828.67
2019-02-21T20:10:36.976Z,102842.21
2019-02-21T20:13:08.022Z,102850.33
2019-02-21T20:15:37.270Z,102849.27
2019-02-21T20:18:06.632Z,102849.27
2019-02-21T20:20:35.936Z,102846.63
2019-02-21T20:23:05.183Z,102849.34
2019-02-21T20:25:34.379Z,102853.22
2019-02-21T20:28:03.674Z,102858.20
2019-02-21T20:30:32.937Z,102858.31
2019-02-21T20:33:02.121Z,102854.14
2019-02-21T20:35:31.434Z,102866.23
2019-02-21T20:38:00.624Z,102866.23
2019-02-21T20:40:29.837Z,102872.47
2019-02-21T20:42:59.047Z,102872.47
2019-02-21T20:45:28.344Z,102862.28
2019-02-21T20:47:57.589Z,102862.28
2019-02-21T20:50:26.792Z,102867.16
2019-02-21T20:52:56.045Z,102868.45
2019-02-21T20:55:25.248Z,102868.30
2019-02-21T20:57:54.466Z,102874.45
2019-02-21T21:00:23.664Z,102884.95
2019-02-21T21:02:52.868Z,102887.06
2019-02-21T21:05:22.098Z,102887.06
2019-02-21T21:07:51.321Z,102895.28
2019-02-21T21:10:20.605Z,102905.17
2019-02-21T21:12:49.827Z,102905.17
2019-02-21T21:15:19.106Z,102901.09
2019-02-21T21:17:48.318Z,102901.09
2019-02-21T21:20:18.524Z,102900.00
2019-02-21T21:22:47.700Z,102900.00
2019-02-21T21:25:18.042Z,102903.20
2019-02-21T21:27:47.265Z,102910.34
2019-02-21T21:30:17.713Z,102910.34
2019-02-21T21:32:46.937Z,102909.92
2019-02-21T21:35:16.164Z,102922.71
2019-02-21T21:37:45.362Z,102922.71
2019-02-21T21:40:16.343Z,102923.76
2019-02-21T21:42:45.650Z,102923.76
2019-02-21T21:45:18.443Z,102929.11
2019-02-21T21:47:47.662Z,102928.11
2019-02-21T21:50:18.208Z,102927.28
2019-02-21T21:52:47.474Z,102943.48
2019-02-21T21:55:16.876Z,102944.43
2019-02-21T21:57:46.174Z,102944.43
2019-02-21T22:00:20.943Z,102951.72
2019-02-21T22:02:50.160Z,102960.44
2019-02-21T22:05:19.496Z,102966.25
2019-02-21T22:07:49.446Z,102966.25
2019-02-21T22:10:18.899Z,102958.08
2019-02-21T22:12:48.101Z,102969.14
2019-02-21T22:15:19.283Z,102969.14
2019-02-21T22:17:48.491Z,102968.44
2019-02-21T22:20:17.696Z,102974.27
2019-02-21T22:22:46.912Z,102974.27
2019-02-21T22:25:16.188Z,102970.99
2019-02-21T22:27:45.392Z,102973.34
2019-02-21T22:30:19.433Z,102973.34
2019-02-21T22:32:48.555Z,102983.94
2019-02-21T22:35:17.760Z,102980.47
2019-02-21T22:37:47.074Z,102986.23
2019-02-21T22:40:18.577Z,102986.23
2019-02-21T22:42:47.762Z,102986.72
2019-02-21T22:45:17.056Z,102989.75
2019-02-21T22:47:46.251Z,102999.22
2019-02-21T22:50:17.484Z,102987.56
2019-02-21T22:52:46.760Z,102992.11
2019-02-21T22:55:15.979Z,102992.11
2019-02-21T22:57:45.375Z,102988.73
2019-02-21T23:00:40.010Z,102995.99
2019-02-21T23:03:11.635Z,102995.99
2019-02-21T23:05:58.940Z,103003.21
2019-02-21T23:08:43.463Z,103012.13
2019-02-21T23:11:12.807Z,103012.13
2019-02-21T23:13:42.071Z,103017.38
2019-02-21T23:16:11.366Z,103017.38
2019-02-21T23:18:40.584Z,103022.16
2019-02-21T23:21:09.927Z,103016.73
2019-02-21T23:23:39.110Z,103016.73
2019-02-21T23:26:08.496Z,103020.86
2019-02-21T23:28:37.697Z,103015.56
2019-02-21T23:31:06.910Z,103027.94
2019-02-21T23:33:46.435Z,103020.27
2019-02-21T23:36:15.639Z,103020.27
2019-02-21T23:38:44.862Z,103038.58
2019-02-21T23:41:14.065Z,103038.58
2019-02-21T23:43:43.421Z,103028.78
2019-02-21T23:46:12.651Z,103051.88
2019-02-21T23:48:41.856Z,103046.59
2019-02-21T23:51:11.069Z,103053.77
2019-02-21T23:53:40.283Z,103053.77
2019-02-21T23:56:09.489Z,103066.52
2019-02-21T23:58:38.671Z,103056.95
